sensor_id;sensor_type;location;lat;lon;timestamp;P1;durP1;ratioP1;P2;durP2;ratioP2
8100;SDS011;4093;53.470;9.832;2023-02-11T00:00:37;52.80;;;28.67;;
8100;SDS011;4093;53.470;9.832;2023-02-11T00:03:05;50.27;;;26.00;;
8100;SDS011;4093;53.470;9.832;2023-02-11T00:05:33;54.10;;;28.13;;
8100;SDS011;4093;53.470;9.832;2023-02-11T00:08:01;47.77;;;27.03;;
8100;SDS011;4093;53.470;9.832;2023-02-11T00:10:28;55.10;;;28.43;;
8100;SDS011;4093;53.470;9.832;2023-02-11T00:12:58;50.07;;;27.03;;
8100;SDS011;4093;53.470;9.832;2023-02-11T00:15:25;50.37;;;27.50;;
8100;SDS011;4093;53.470;9.832;2023-02-11T00:17:53;50.40;;;28.73;;
8100;SDS011;4093;53.470;9.832;2023-02-11T00:20:21;47.63;;;27.20;;
8100;SDS011;4093;53.470;9.832;2023-02-11T00:22:48;51.33;;;27.60;;
8100;SDS011;4093;53.470;9.832;2023-02-11T00:25:16;58.10;;;29.43;;
8100;SDS011;4093;53.470;9.832;2023-02-11T00:27:44;49.83;;;28.13;;
8100;SDS011;4093;53.470;9.832;2023-02-11T00:30:13;53.03;;;28.53;;
8100;SDS011;4093;53.470;9.832;2023-02-11T00:32:41;49.20;;;28.63;;
8100;SDS011;4093;53.470;9.832;2023-02-11T00:35:09;52.70;;;29.00;;
8100;SDS011;4093;53.470;9.832;2023-02-11T00:37:37;56.60;;;31.00;;
8100;SDS011;4093;53.470;9.832;2023-02-11T00:40:05;61.33;;;29.60;;
8100;SDS011;4093;53.470;9.832;2023-02-11T00:42:33;54.30;;;29.00;;
8100;SDS011;4093;53.470;9.832;2023-02-11T00:45:02;50.97;;;28.77;;
8100;SDS011;4093;53.470;9.832;2023-02-11T00:47:32;53.30;;;30.23;;
8100;SDS011;4093;53.470;9.832;2023-02-11T00:50:00;55.37;;;28.63;;
8100;SDS011;4093;53.470;9.832;2023-02-11T00:52:29;60.20;;;31.47;;
8100;SDS011;4093;53.470;9.832;2023-02-11T00:54:57;58.13;;;29.63;;
8100;SDS011;4093;53.470;9.832;2023-02-11T00:57:25;55.37;;;29.40;;
8100;SDS011;4093;53.470;9.832;2023-02-11T00:59:53;55.47;;;29.87;;
8100;SDS011;4093;53.470;9.832;2023-02-11T01:02:21;57.73;;;28.60;;
8100;SDS011;4093;53.470;9.832;2023-02-11T01:04:50;50.13;;;27.13;;
8100;SDS011;4093;53.470;9.832;2023-02-11T01:07:18;57.40;;;30.97;;
8100;SDS011;4093;53.470;9.832;2023-02-11T01:09:45;58.83;;;30.13;;
8100;SDS011;4093;53.470;9.832;2023-02-11T01:12:13;56.70;;;28.47;;
8100;SDS011;4093;53.470;9.832;2023-02-11T01:14:41;53.93;;;29.83;;
8100;SDS011;4093;53.470;9.832;2023-02-11T01:17:09;50.87;;;28.40;;
8100;SDS011;4093;53.470;9.832;2023-02-11T01:19:37;56.67;;;29.00;;
8100;SDS011;4093;53.470;9.832;2023-02-11T01:22:06;57.27;;;30.27;;
8100;SDS011;4093;53.470;9.832;2023-02-11T01:24:34;52.77;;;28.07;;
8100;SDS011;4093;53.470;9.832;2023-02-11T01:27:01;59.27;;;29.53;;
8100;SDS011;4093;53.470;9.832;2023-02-11T01:29:29;55.87;;;30.20;;
8100;SDS011;4093;53.470;9.832;2023-02-11T01:31:57;49.50;;;27.70;;
8100;SDS011;4093;53.470;9.832;2023-02-11T01:34:26;63.23;;;31.40;;
8100;SDS011;4093;53.470;9.832;2023-02-11T01:36:55;55.30;;;28.77;;
8100;SDS011;4093;53.470;9.832;2023-02-11T01:39:26;58.20;;;27.67;;
8100;SDS011;4093;53.470;9.832;2023-02-11T01:41:54;56.10;;;28.37;;
8100;SDS011;4093;53.470;9.832;2023-02-11T01:44:23;59.30;;;30.93;;
8100;SDS011;4093;53.470;9.832;2023-02-11T01:46:53;51.83;;;28.10;;
8100;SDS011;4093;53.470;9.832;2023-02-11T01:49:22;54.30;;;29.93;;
8100;SDS011;4093;53.470;9.832;2023-02-11T01:51:54;55.60;;;28.87;;
8100;SDS011;4093;53.470;9.832;2023-02-11T01:54:27;54.90;;;28.67;;
8100;SDS011;4093;53.470;9.832;2023-02-11T01:57:16;57.67;;;29.10;;
8100;SDS011;4093;53.470;9.832;2023-02-11T01:59:59;54.37;;;28.70;;
8100;SDS011;4093;53.470;9.832;2023-02-11T02:02:32;56.10;;;28.57;;
8100;SDS011;4093;53.470;9.832;2023-02-11T02:05:04;54.10;;;29.27;;
8100;SDS011;4093;53.470;9.832;2023-02-11T02:07:41;58.77;;;28.20;;
8100;SDS011;4093;53.470;9.832;2023-02-11T02:10:18;54.03;;;27.57;;
8100;SDS011;4093;53.470;9.832;2023-02-11T02:12:49;51.83;;;26.63;;
8100;SDS011;4093;53.470;9.832;2023-02-11T02:15:21;47.13;;;26.93;;
8100;SDS011;4093;53.470;9.832;2023-02-11T02:17:53;51.90;;;27.43;;
8100;SDS011;4093;53.470;9.832;2023-02-11T02:23:27;55.27;;;27.20;;
8100;SDS011;4093;53.470;9.832;2023-02-11T02:26:16;54.17;;;27.03;;
8100;SDS011;4093;53.470;9.832;2023-02-11T02:29:18;44.23;;;24.43;;
8100;SDS011;4093;53.470;9.832;2023-02-11T02:32:10;51.33;;;25.47;;
8100;SDS011;4093;53.470;9.832;2023-02-11T02:34:49;53.50;;;27.20;;
8100;SDS011;4093;53.470;9.832;2023-02-11T02:37:20;52.63;;;25.97;;
8100;SDS011;4093;53.470;9.832;2023-02-11T02:39:54;48.80;;;25.27;;
8100;SDS011;4093;53.470;9.832;2023-02-11T02:42:25;48.57;;;25.17;;
8100;SDS011;4093;53.470;9.832;2023-02-11T02:44:54;45.83;;;25.17;;
8100;SDS011;4093;53.470;9.832;2023-02-11T02:47:24;54.03;;;25.37;;
8100;SDS011;4093;53.470;9.832;2023-02-11T02:49:51;47.17;;;25.37;;
8100;SDS011;4093;53.470;9.832;2023-02-11T02:52:23;40.33;;;24.10;;
8100;SDS011;4093;53.470;9.832;2023-02-11T02:55:07;46.60;;;23.07;;
8100;SDS011;4093;53.470;9.832;2023-02-11T02:57:46;49.70;;;24.63;;
8100;SDS011;4093;53.470;9.832;2023-02-11T03:00:29;45.70;;;25.27;;
8100;SDS011;4093;53.470;9.832;2023-02-11T03:03:07;54.13;;;24.30;;
8100;SDS011;4093;53.470;9.832;2023-02-11T03:05:46;42.80;;;22.40;;
8100;SDS011;4093;53.470;9.832;2023-02-11T03:08:22;58.77;;;25.47;;
8100;SDS011;4093;53.470;9.832;2023-02-11T03:10:55;50.37;;;25.93;;
8100;SDS011;4093;53.470;9.832;2023-02-11T03:13:25;45.00;;;24.33;;
8100;SDS011;4093;53.470;9.832;2023-02-11T03:15:59;48.00;;;24.80;;
8100;SDS011;4093;53.470;9.832;2023-02-11T03:18:35;46.60;;;22.83;;
8100;SDS011;4093;53.470;9.832;2023-02-11T03:21:05;45.13;;;22.13;;
8100;SDS011;4093;53.470;9.832;2023-02-11T03:23:36;51.97;;;22.47;;
8100;SDS011;4093;53.470;9.832;2023-02-11T03:26:08;53.17;;;24.17;;
8100;SDS011;4093;53.470;9.832;2023-02-11T03:28:41;49.97;;;23.07;;
8100;SDS011;4093;53.470;9.832;2023-02-11T03:31:16;41.47;;;22.60;;
8100;SDS011;4093;53.470;9.832;2023-02-11T03:33:54;38.03;;;20.67;;
8100;SDS011;4093;53.470;9.832;2023-02-11T03:36:29;39.70;;;21.13;;
8100;SDS011;4093;53.470;9.832;2023-02-11T03:39:02;51.77;;;23.83;;
8100;SDS011;4093;53.470;9.832;2023-02-11T03:41:31;44.27;;;20.33;;
8100;SDS011;4093;53.470;9.832;2023-02-11T03:44:02;38.17;;;19.23;;
8100;SDS011;4093;53.470;9.832;2023-02-11T03:46:32;40.10;;;19.97;;
8100;SDS011;4093;53.470;9.832;2023-02-11T03:49:05;34.47;;;18.73;;
8100;SDS011;4093;53.470;9.832;2023-02-11T03:51:38;39.83;;;19.57;;
8100;SDS011;4093;53.470;9.832;2023-02-11T03:54:08;30.97;;;18.00;;
8100;SDS011;4093;53.470;9.832;2023-02-11T03:56:41;37.30;;;18.93;;
8100;SDS011;4093;53.470;9.832;2023-02-11T03:59:14;33.17;;;17.47;;
8100;SDS011;4093;53.470;9.832;2023-02-11T04:01:42;36.80;;;17.83;;
8100;SDS011;4093;53.470;9.832;2023-02-11T04:04:11;32.30;;;18.43;;
8100;SDS011;4093;53.470;9.832;2023-02-11T04:06:39;32.77;;;17.40;;
8100;SDS011;4093;53.470;9.832;2023-02-11T04:09:07;33.63;;;18.40;;
8100;SDS011;4093;53.470;9.832;2023-02-11T04:11:35;35.57;;;17.60;;
8100;SDS011;4093;53.470;9.832;2023-02-11T04:14:03;43.20;;;18.87;;
8100;SDS011;4093;53.470;9.832;2023-02-11T04:16:31;36.93;;;18.13;;
8100;SDS011;4093;53.470;9.832;2023-02-11T04:18:58;46.17;;;18.27;;
8100;SDS011;4093;53.470;9.832;2023-02-11T04:21:28;40.37;;;17.80;;
8100;SDS011;4093;53.470;9.832;2023-02-11T04:23:55;35.47;;;17.17;;
8100;SDS011;4093;53.470;9.832;2023-02-11T04:26:23;33.37;;;16.77;;
8100;SDS011;4093;53.470;9.832;2023-02-11T04:28:51;37.73;;;17.43;;
8100;SDS011;4093;53.470;9.832;2023-02-11T04:31:19;31.77;;;16.60;;
8100;SDS011;4093;53.470;9.832;2023-02-11T04:33:46;28.73;;;15.53;;
8100;SDS011;4093;53.470;9.832;2023-02-11T04:36:14;27.33;;;15.83;;
8100;SDS011;4093;53.470;9.832;2023-02-11T04:38:43;36.87;;;17.33;;
8100;SDS011;4093;53.470;9.832;2023-02-11T04:41:11;33.83;;;16.00;;
8100;SDS011;4093;53.470;9.832;2023-02-11T04:43:39;38.07;;;16.53;;
8100;SDS011;4093;53.470;9.832;2023-02-11T04:46:06;30.30;;;16.43;;
8100;SDS011;4093;53.470;9.832;2023-02-11T04:48:34;35.13;;;16.50;;
8100;SDS011;4093;53.470;9.832;2023-02-11T04:51:02;41.77;;;16.77;;
8100;SDS011;4093;53.470;9.832;2023-02-11T04:53:30;31.57;;;16.23;;
8100;SDS011;4093;53.470;9.832;2023-02-11T04:55:59;31.67;;;15.50;;
8100;SDS011;4093;53.470;9.832;2023-02-11T04:58:27;31.73;;;16.13;;
8100;SDS011;4093;53.470;9.832;2023-02-11T05:00:54;29.53;;;17.10;;
8100;SDS011;4093;53.470;9.832;2023-02-11T05:03:22;33.23;;;16.00;;
8100;SDS011;4093;53.470;9.832;2023-02-11T05:05:50;37.37;;;15.50;;
8100;SDS011;4093;53.470;9.832;2023-02-11T05:08:18;32.33;;;15.43;;
8100;SDS011;4093;53.470;9.832;2023-02-11T05:10:46;32.33;;;15.23;;
8100;SDS011;4093;53.470;9.832;2023-02-11T05:13:15;30.33;;;14.83;;
8100;SDS011;4093;53.470;9.832;2023-02-11T05:15:43;28.47;;;15.27;;
8100;SDS011;4093;53.470;9.832;2023-02-11T05:18:10;37.97;;;17.20;;
8100;SDS011;4093;53.470;9.832;2023-02-11T05:20:40;33.87;;;15.57;;
8100;SDS011;4093;53.470;9.832;2023-02-11T05:23:08;33.47;;;16.10;;
8100;SDS011;4093;53.470;9.832;2023-02-11T05:25:36;35.03;;;14.97;;
8100;SDS011;4093;53.470;9.832;2023-02-11T05:28:04;31.63;;;16.13;;
8100;SDS011;4093;53.470;9.832;2023-02-11T05:30:33;33.80;;;15.77;;
8100;SDS011;4093;53.470;9.832;2023-02-11T05:33:01;31.87;;;14.87;;
8100;SDS011;4093;53.470;9.832;2023-02-11T05:35:29;33.97;;;15.50;;
8100;SDS011;4093;53.470;9.832;2023-02-11T05:37:56;32.57;;;15.10;;
8100;SDS011;4093;53.470;9.832;2023-02-11T05:40:24;31.27;;;15.20;;
8100;SDS011;4093;53.470;9.832;2023-02-11T05:42:52;33.73;;;15.83;;
8100;SDS011;4093;53.470;9.832;2023-02-11T05:45:19;36.70;;;15.17;;
8100;SDS011;4093;53.470;9.832;2023-02-11T05:47:49;35.20;;;16.03;;
8100;SDS011;4093;53.470;9.832;2023-02-11T05:50:16;29.67;;;14.70;;
8100;SDS011;4093;53.470;9.832;2023-02-11T05:52:45;37.57;;;14.97;;
8100;SDS011;4093;53.470;9.832;2023-02-11T05:55:12;29.53;;;15.10;;
8100;SDS011;4093;53.470;9.832;2023-02-11T05:57:40;31.53;;;16.30;;
8100;SDS011;4093;53.470;9.832;2023-02-11T06:00:08;28.13;;;15.27;;
8100;SDS011;4093;53.470;9.832;2023-02-11T06:02:37;27.73;;;14.53;;
8100;SDS011;4093;53.470;9.832;2023-02-11T06:05:07;35.27;;;16.73;;
8100;SDS011;4093;53.470;9.832;2023-02-11T06:07:35;32.43;;;15.80;;
8100;SDS011;4093;53.470;9.832;2023-02-11T06:10:03;35.53;;;16.87;;
8100;SDS011;4093;53.470;9.832;2023-02-11T06:12:31;32.60;;;15.93;;
8100;SDS011;4093;53.470;9.832;2023-02-11T06:14:59;37.77;;;17.20;;
8100;SDS011;4093;53.470;9.832;2023-02-11T06:17:27;33.23;;;16.97;;
8100;SDS011;4093;53.470;9.832;2023-02-11T06:19:56;29.33;;;16.17;;
8100;SDS011;4093;53.470;9.832;2023-02-11T06:22:25;30.13;;;15.27;;
8100;SDS011;4093;53.470;9.832;2023-02-11T06:24:53;33.40;;;16.23;;
8100;SDS011;4093;53.470;9.832;2023-02-11T06:27:27;33.03;;;16.23;;
8100;SDS011;4093;53.470;9.832;2023-02-11T06:29:55;32.07;;;16.93;;
8100;SDS011;4093;53.470;9.832;2023-02-11T06:32:23;34.30;;;17.67;;
8100;SDS011;4093;53.470;9.832;2023-02-11T06:35:09;27.70;;;16.10;;
8100;SDS011;4093;53.470;9.832;2023-02-11T06:37:39;30.53;;;16.20;;
8100;SDS011;4093;53.470;9.832;2023-02-11T06:40:08;27.80;;;15.57;;
8100;SDS011;4093;53.470;9.832;2023-02-11T06:42:37;28.23;;;15.27;;
8100;SDS011;4093;53.470;9.832;2023-02-11T06:45:05;32.33;;;16.10;;
8100;SDS011;4093;53.470;9.832;2023-02-11T06:47:34;28.13;;;15.80;;
8100;SDS011;4093;53.470;9.832;2023-02-11T06:50:02;28.40;;;15.53;;
8100;SDS011;4093;53.470;9.832;2023-02-11T06:52:31;28.37;;;15.47;;
8100;SDS011;4093;53.470;9.832;2023-02-11T06:55:00;37.03;;;17.57;;
8100;SDS011;4093;53.470;9.832;2023-02-11T06:57:28;25.97;;;15.37;;
8100;SDS011;4093;53.470;9.832;2023-02-11T06:59:56;31.07;;;15.97;;
8100;SDS011;4093;53.470;9.832;2023-02-11T07:02:24;26.30;;;14.90;;
8100;SDS011;4093;53.470;9.832;2023-02-11T07:04:52;26.73;;;15.97;;
8100;SDS011;4093;53.470;9.832;2023-02-11T07:07:20;29.67;;;15.93;;
8100;SDS011;4093;53.470;9.832;2023-02-11T07:09:48;26.43;;;15.27;;
8100;SDS011;4093;53.470;9.832;2023-02-11T07:12:17;28.50;;;15.53;;
8100;SDS011;4093;53.470;9.832;2023-02-11T07:14:45;26.10;;;15.83;;
8100;SDS011;4093;53.470;9.832;2023-02-11T07:17:12;27.67;;;16.43;;
8100;SDS011;4093;53.470;9.832;2023-02-11T07:19:40;24.00;;;14.53;;
8100;SDS011;4093;53.470;9.832;2023-02-11T07:22:08;28.00;;;15.37;;
8100;SDS011;4093;53.470;9.832;2023-02-11T07:24:36;24.27;;;15.23;;
8100;SDS011;4093;53.470;9.832;2023-02-11T07:27:03;26.37;;;15.23;;
8100;SDS011;4093;53.470;9.832;2023-02-11T07:29:33;28.40;;;15.47;;
8100;SDS011;4093;53.470;9.832;2023-02-11T07:32:01;33.60;;;17.03;;
8100;SDS011;4093;53.470;9.832;2023-02-11T07:34:28;26.93;;;15.60;;
8100;SDS011;4093;53.470;9.832;2023-02-11T07:36:56;28.20;;;16.33;;
8100;SDS011;4093;53.470;9.832;2023-02-11T07:39:24;27.47;;;15.30;;
8100;SDS011;4093;53.470;9.832;2023-02-11T07:41:52;30.73;;;16.87;;
8100;SDS011;4093;53.470;9.832;2023-02-11T07:44:22;32.50;;;16.70;;
8100;SDS011;4093;53.470;9.832;2023-02-11T07:46:51;30.70;;;16.53;;
8100;SDS011;4093;53.470;9.832;2023-02-11T07:49:19;27.13;;;16.17;;
8100;SDS011;4093;53.470;9.832;2023-02-11T07:51:46;29.77;;;17.47;;
8100;SDS011;4093;53.470;9.832;2023-02-11T07:54:16;29.77;;;15.53;;
8100;SDS011;4093;53.470;9.832;2023-02-11T07:56:44;30.97;;;15.50;;
8100;SDS011;4093;53.470;9.832;2023-02-11T07:59:12;27.87;;;15.87;;
8100;SDS011;4093;53.470;9.832;2023-02-11T08:01:39;29.00;;;17.37;;
8100;SDS011;4093;53.470;9.832;2023-02-11T08:04:09;32.70;;;17.17;;
8100;SDS011;4093;53.470;9.832;2023-02-11T08:06:39;27.20;;;16.30;;
8100;SDS011;4093;53.470;9.832;2023-02-11T08:09:09;31.47;;;15.77;;
8100;SDS011;4093;53.470;9.832;2023-02-11T08:11:40;27.63;;;16.10;;
8100;SDS011;4093;53.470;9.832;2023-02-11T08:14:07;26.60;;;16.73;;
8100;SDS011;4093;53.470;9.832;2023-02-11T08:16:36;32.83;;;17.07;;
8100;SDS011;4093;53.470;9.832;2023-02-11T08:19:05;31.03;;;16.77;;
8100;SDS011;4093;53.470;9.832;2023-02-11T08:21:36;28.57;;;15.70;;
8100;SDS011;4093;53.470;9.832;2023-02-11T08:24:04;31.90;;;16.30;;
8100;SDS011;4093;53.470;9.832;2023-02-11T08:26:33;28.37;;;16.73;;
8100;SDS011;4093;53.470;9.832;2023-02-11T08:29:02;26.73;;;15.20;;
8100;SDS011;4093;53.470;9.832;2023-02-11T08:31:34;33.90;;;17.00;;
8100;SDS011;4093;53.470;9.832;2023-02-11T08:34:04;31.40;;;15.90;;
8100;SDS011;4093;53.470;9.832;2023-02-11T08:36:33;31.60;;;17.53;;
8100;SDS011;4093;53.470;9.832;2023-02-11T08:39:04;28.07;;;16.70;;
8100;SDS011;4093;53.470;9.832;2023-02-11T08:41:45;32.00;;;16.87;;
8100;SDS011;4093;53.470;9.832;2023-02-11T08:44:14;26.37;;;15.47;;
8100;SDS011;4093;53.470;9.832;2023-02-11T08:46:41;26.53;;;16.37;;
8100;SDS011;4093;53.470;9.832;2023-02-11T08:49:09;28.40;;;17.00;;
8100;SDS011;4093;53.470;9.832;2023-02-11T08:51:37;27.93;;;15.53;;
8100;SDS011;4093;53.470;9.832;2023-02-11T08:54:06;24.57;;;15.20;;
8100;SDS011;4093;53.470;9.832;2023-02-11T08:56:35;28.70;;;17.00;;
8100;SDS011;4093;53.470;9.832;2023-02-11T08:59:04;29.07;;;15.60;;
8100;SDS011;4093;53.470;9.832;2023-02-11T09:01:32;26.83;;;15.70;;
8100;SDS011;4093;53.470;9.832;2023-02-11T09:04:00;26.37;;;16.00;;
8100;SDS011;4093;53.470;9.832;2023-02-11T09:06:28;29.13;;;15.73;;
8100;SDS011;4093;53.470;9.832;2023-02-11T09:08:56;28.07;;;14.77;;
8100;SDS011;4093;53.470;9.832;2023-02-11T09:11:26;22.37;;;13.80;;
8100;SDS011;4093;53.470;9.832;2023-02-11T09:13:56;28.33;;;15.50;;
8100;SDS011;4093;53.470;9.832;2023-02-11T09:16:25;25.60;;;14.50;;
8100;SDS011;4093;53.470;9.832;2023-02-11T09:18:55;24.17;;;14.73;;
8100;SDS011;4093;53.470;9.832;2023-02-11T09:21:23;22.67;;;14.43;;
8100;SDS011;4093;53.470;9.832;2023-02-11T09:23:51;29.80;;;13.60;;
8100;SDS011;4093;53.470;9.832;2023-02-11T09:26:20;28.00;;;14.03;;
8100;SDS011;4093;53.470;9.832;2023-02-11T09:28:51;27.03;;;14.80;;
8100;SDS011;4093;53.470;9.832;2023-02-11T09:31:20;28.83;;;15.13;;
8100;SDS011;4093;53.470;9.832;2023-02-11T09:33:50;30.03;;;14.60;;
8100;SDS011;4093;53.470;9.832;2023-02-11T09:36:21;25.27;;;14.90;;
8100;SDS011;4093;53.470;9.832;2023-02-11T09:38:51;24.23;;;14.10;;
8100;SDS011;4093;53.470;9.832;2023-02-11T09:41:26;28.57;;;14.80;;
8100;SDS011;4093;53.470;9.832;2023-02-11T09:44:04;25.83;;;14.40;;
8100;SDS011;4093;53.470;9.832;2023-02-11T09:46:34;27.67;;;15.93;;
8100;SDS011;4093;53.470;9.832;2023-02-11T09:49:03;25.40;;;15.03;;
8100;SDS011;4093;53.470;9.832;2023-02-11T09:51:34;31.57;;;13.87;;
8100;SDS011;4093;53.470;9.832;2023-02-11T09:54:09;27.90;;;15.37;;
8100;SDS011;4093;53.470;9.832;2023-02-11T09:56:42;25.17;;;14.30;;
8100;SDS011;4093;53.470;9.832;2023-02-11T09:59:12;24.63;;;13.60;;
8100;SDS011;4093;53.470;9.832;2023-02-11T10:01:42;24.10;;;13.37;;
8100;SDS011;4093;53.470;9.832;2023-02-11T10:04:16;26.60;;;13.93;;
8100;SDS011;4093;53.470;9.832;2023-02-11T10:06:55;28.00;;;13.70;;
8100;SDS011;4093;53.470;9.832;2023-02-11T10:09:31;24.50;;;13.37;;
8100;SDS011;4093;53.470;9.832;2023-02-11T10:12:21;22.43;;;13.50;;
8100;SDS011;4093;53.470;9.832;2023-02-11T10:15:12;26.27;;;13.73;;
8100;SDS011;4093;53.470;9.832;2023-02-11T10:17:49;25.60;;;14.00;;
8100;SDS011;4093;53.470;9.832;2023-02-11T10:20:29;27.57;;;14.97;;
8100;SDS011;4093;53.470;9.832;2023-02-11T10:23:04;32.23;;;14.40;;
8100;SDS011;4093;53.470;9.832;2023-02-11T10:25:37;30.00;;;13.80;;
8100;SDS011;4093;53.470;9.832;2023-02-11T10:28:10;31.50;;;14.57;;
8100;SDS011;4093;53.470;9.832;2023-02-11T10:30:44;26.43;;;12.93;;
8100;SDS011;4093;53.470;9.832;2023-02-11T10:33:18;22.30;;;12.93;;
8100;SDS011;4093;53.470;9.832;2023-02-11T10:35:51;23.97;;;12.83;;
8100;SDS011;4093;53.470;9.832;2023-02-11T10:38:19;24.13;;;11.83;;
8100;SDS011;4093;53.470;9.832;2023-02-11T10:40:47;24.97;;;12.63;;
8100;SDS011;4093;53.470;9.832;2023-02-11T10:43:16;28.17;;;11.90;;
8100;SDS011;4093;53.470;9.832;2023-02-11T10:45:49;22.17;;;12.43;;
8100;SDS011;4093;53.470;9.832;2023-02-11T10:48:35;25.60;;;13.33;;
8100;SDS011;4093;53.470;9.832;2023-02-11T10:51:15;25.50;;;11.97;;
8100;SDS011;4093;53.470;9.832;2023-02-11T10:53:46;30.80;;;12.53;;
8100;SDS011;4093;53.470;9.832;2023-02-11T10:56:19;24.60;;;11.40;;
8100;SDS011;4093;53.470;9.832;2023-02-11T10:58:54;22.90;;;10.87;;
8100;SDS011;4093;53.470;9.832;2023-02-11T11:01:37;26.97;;;12.30;;
8100;SDS011;4093;53.470;9.832;2023-02-11T11:04:19;30.00;;;11.90;;
8100;SDS011;4093;53.470;9.832;2023-02-11T11:07:14;20.47;;;11.27;;
8100;SDS011;4093;53.470;9.832;2023-02-11T11:09:49;22.50;;;11.40;;
8100;SDS011;4093;53.470;9.832;2023-02-11T11:12:28;31.00;;;11.93;;
8100;SDS011;4093;53.470;9.832;2023-02-11T11:15:00;25.07;;;12.17;;
8100;SDS011;4093;53.470;9.832;2023-02-11T11:17:40;24.77;;;12.00;;
8100;SDS011;4093;53.470;9.832;2023-02-11T11:20:24;28.47;;;10.97;;
8100;SDS011;4093;53.470;9.832;2023-02-11T11:23:07;29.30;;;11.47;;
8100;SDS011;4093;53.470;9.832;2023-02-11T11:25:42;26.30;;;10.70;;
8100;SDS011;4093;53.470;9.832;2023-02-11T11:28:19;22.90;;;11.23;;
8100;SDS011;4093;53.470;9.832;2023-02-11T11:30:50;29.87;;;10.93;;
8100;SDS011;4093;53.470;9.832;2023-02-11T11:33:22;27.53;;;10.87;;
8100;SDS011;4093;53.470;9.832;2023-02-11T11:35:56;28.27;;;10.93;;
8100;SDS011;4093;53.470;9.832;2023-02-11T11:38:27;24.20;;;10.87;;
8100;SDS011;4093;53.470;9.832;2023-02-11T11:41:16;23.33;;;9.73;;
8100;SDS011;4093;53.470;9.832;2023-02-11T11:43:53;27.53;;;10.77;;
8100;SDS011;4093;53.470;9.832;2023-02-11T11:46:23;25.53;;;9.90;;
8100;SDS011;4093;53.470;9.832;2023-02-11T11:48:55;26.97;;;10.63;;
8100;SDS011;4093;53.470;9.832;2023-02-11T11:51:41;29.73;;;9.60;;
8100;SDS011;4093;53.470;9.832;2023-02-11T11:54:16;20.07;;;9.67;;
8100;SDS011;4093;53.470;9.832;2023-02-11T11:56:49;21.23;;;10.10;;
8100;SDS011;4093;53.470;9.832;2023-02-11T11:59:21;24.13;;;9.80;;
8100;SDS011;4093;53.470;9.832;2023-02-11T12:01:52;22.33;;;9.40;;
8100;SDS011;4093;53.470;9.832;2023-02-11T12:04:57;17.33;;;9.43;;
8100;SDS011;4093;53.470;9.832;2023-02-11T12:07:34;22.33;;;8.70;;
8100;SDS011;4093;53.470;9.832;2023-02-11T12:12:55;17.53;;;8.47;;
8100;SDS011;4093;53.470;9.832;2023-02-11T12:15:31;24.47;;;9.27;;
8100;SDS011;4093;53.470;9.832;2023-02-11T12:18:13;19.60;;;9.83;;
8100;SDS011;4093;53.470;9.832;2023-02-11T12:21:01;19.27;;;8.67;;
8100;SDS011;4093;53.470;9.832;2023-02-11T12:23:47;19.87;;;8.67;;
8100;SDS011;4093;53.470;9.832;2023-02-11T12:26:30;17.27;;;8.60;;
8100;SDS011;4093;53.470;9.832;2023-02-11T12:29:07;20.93;;;8.10;;
8100;SDS011;4093;53.470;9.832;2023-02-11T12:31:52;18.27;;;8.73;;
8100;SDS011;4093;53.470;9.832;2023-02-11T12:34:54;16.97;;;8.33;;
8100;SDS011;4093;53.470;9.832;2023-02-11T12:37:43;16.90;;;8.10;;
8100;SDS011;4093;53.470;9.832;2023-02-11T12:40:24;16.73;;;7.70;;
8100;SDS011;4093;53.470;9.832;2023-02-11T12:43:11;18.20;;;7.67;;
8100;SDS011;4093;53.470;9.832;2023-02-11T12:45:56;15.00;;;8.00;;
8100;SDS011;4093;53.470;9.832;2023-02-11T12:48:32;18.27;;;7.17;;
8100;SDS011;4093;53.470;9.832;2023-02-11T12:51:24;17.40;;;7.30;;
8100;SDS011;4093;53.470;9.832;2023-02-11T12:54:10;14.83;;;7.40;;
8100;SDS011;4093;53.470;9.832;2023-02-11T12:56:48;12.50;;;6.73;;
8100;SDS011;4093;53.470;9.832;2023-02-11T12:59:26;14.37;;;6.80;;
8100;SDS011;4093;53.470;9.832;2023-02-11T13:02:08;13.57;;;6.43;;
8100;SDS011;4093;53.470;9.832;2023-02-11T13:04:45;14.03;;;5.77;;
8100;SDS011;4093;53.470;9.832;2023-02-11T13:07:19;14.63;;;6.00;;
8100;SDS011;4093;53.470;9.832;2023-02-11T13:09:53;10.73;;;5.53;;
8100;SDS011;4093;53.470;9.832;2023-02-11T13:12:27;11.97;;;5.20;;
8100;SDS011;4093;53.470;9.832;2023-02-11T13:15:16;10.23;;;5.40;;
8100;SDS011;4093;53.470;9.832;2023-02-11T13:17:47;10.73;;;4.80;;
8100;SDS011;4093;53.470;9.832;2023-02-11T13:20:24;9.60;;;4.70;;
8100;SDS011;4093;53.470;9.832;2023-02-11T13:23:03;9.73;;;5.17;;
8100;SDS011;4093;53.470;9.832;2023-02-11T13:25:41;12.27;;;4.90;;
8100;SDS011;4093;53.470;9.832;2023-02-11T13:28:27;10.53;;;4.40;;
8100;SDS011;4093;53.470;9.832;2023-02-11T13:31:06;7.87;;;4.20;;
8100;SDS011;4093;53.470;9.832;2023-02-11T13:33:38;7.27;;;4.03;;
8100;SDS011;4093;53.470;9.832;2023-02-11T13:36:15;8.73;;;4.63;;
8100;SDS011;4093;53.470;9.832;2023-02-11T13:38:52;12.53;;;4.30;;
8100;SDS011;4093;53.470;9.832;2023-02-11T13:41:24;11.73;;;4.10;;
8100;SDS011;4093;53.470;9.832;2023-02-11T13:43:56;9.43;;;4.03;;
8100;SDS011;4093;53.470;9.832;2023-02-11T13:46:26;9.73;;;3.90;;
8100;SDS011;4093;53.470;9.832;2023-02-11T13:48:56;10.47;;;3.93;;
8100;SDS011;4093;53.470;9.832;2023-02-11T13:51:34;9.93;;;4.00;;
8100;SDS011;4093;53.470;9.832;2023-02-11T13:54:03;10.83;;;4.03;;
8100;SDS011;4093;53.470;9.832;2023-02-11T13:56:35;14.10;;;5.77;;
8100;SDS011;4093;53.470;9.832;2023-02-11T13:59:06;11.57;;;4.83;;
8100;SDS011;4093;53.470;9.832;2023-02-11T14:02:19;17.63;;;5.03;;
8100;SDS011;4093;53.470;9.832;2023-02-11T14:05:21;13.70;;;5.30;;
8100;SDS011;4093;53.470;9.832;2023-02-11T14:08:20;12.53;;;4.43;;
8100;SDS011;4093;53.470;9.832;2023-02-11T14:11:07;17.17;;;5.00;;
8100;SDS011;4093;53.470;9.832;2023-02-11T14:14:01;13.57;;;5.60;;
8100;SDS011;4093;53.470;9.832;2023-02-11T14:19:56;12.17;;;5.97;;
8100;SDS011;4093;53.470;9.832;2023-02-11T14:22:26;12.37;;;5.97;;
8100;SDS011;4093;53.470;9.832;2023-02-11T14:24:57;15.30;;;6.70;;
8100;SDS011;4093;53.470;9.832;2023-02-11T14:27:31;12.87;;;5.60;;
8100;SDS011;4093;53.470;9.832;2023-02-11T14:30:17;13.83;;;5.80;;
8100;SDS011;4093;53.470;9.832;2023-02-11T14:35:55;23.43;;;5.77;;
8100;SDS011;4093;53.470;9.832;2023-02-11T14:38:31;18.03;;;6.30;;
8100;SDS011;4093;53.470;9.832;2023-02-11T14:41:10;18.43;;;6.90;;
8100;SDS011;4093;53.470;9.832;2023-02-11T14:43:48;16.63;;;5.67;;
8100;SDS011;4093;53.470;9.832;2023-02-11T14:46:21;17.07;;;5.83;;
8100;SDS011;4093;53.470;9.832;2023-02-11T14:48:51;16.77;;;5.93;;
8100;SDS011;4093;53.470;9.832;2023-02-11T14:51:22;12.60;;;5.53;;
8100;SDS011;4093;53.470;9.832;2023-02-11T14:53:53;18.17;;;6.00;;
8100;SDS011;4093;53.470;9.832;2023-02-11T14:56:26;16.77;;;6.23;;
8100;SDS011;4093;53.470;9.832;2023-02-11T14:58:56;21.37;;;6.93;;
8100;SDS011;4093;53.470;9.832;2023-02-11T15:01:27;26.97;;;8.17;;
8100;SDS011;4093;53.470;9.832;2023-02-11T15:03:57;24.33;;;6.87;;
8100;SDS011;4093;53.470;9.832;2023-02-11T15:06:27;21.97;;;6.87;;
8100;SDS011;4093;53.470;9.832;2023-02-11T15:08:58;27.00;;;7.03;;
8100;SDS011;4093;53.470;9.832;2023-02-11T15:11:30;21.40;;;6.37;;
8100;SDS011;4093;53.470;9.832;2023-02-11T15:14:05;19.67;;;6.60;;
8100;SDS011;4093;53.470;9.832;2023-02-11T15:16:38;21.17;;;6.83;;
8100;SDS011;4093;53.470;9.832;2023-02-11T15:19:13;27.57;;;6.27;;
8100;SDS011;4093;53.470;9.832;2023-02-11T15:21:46;29.53;;;6.67;;
8100;SDS011;4093;53.470;9.832;2023-02-11T15:24:22;26.83;;;7.60;;
8100;SDS011;4093;53.470;9.832;2023-02-11T15:26:56;26.90;;;6.87;;
8100;SDS011;4093;53.470;9.832;2023-02-11T15:29:27;27.20;;;7.13;;
8100;SDS011;4093;53.470;9.832;2023-02-11T15:32:05;31.30;;;7.13;;
8100;SDS011;4093;53.470;9.832;2023-02-11T15:34:38;21.37;;;6.40;;